Estación Meteorológica Peña el Pijo (Robertgarden) [ 01/30/23 15:11:16 CET ]

Fecha Hora Presion(HPa) Temp (°C) Humedad % Rocio (°C) Viento ( m/s) Direccion Lluvia 1Hora(mm) Lluvia 24H(mm) LLuvia Total(mm)
2010-May-17 01:01:11 1016.600 5.9 71 1.1         113.96
2010-May-17 02:01:17 1016.700 4.6 74 0.3         113.96
2010-May-17 03:03:22 1016.500 4.1 76 0.2         113.96
2010-May-17 04:01:15 1016.300 3.3 79 0.0         113.96
2010-May-17 05:01:10 1016.500 2.4 79 -0.9         113.96
2010-May-17 06:01:13 1016.300 2.2 81 -0.7         113.96
2010-May-17 07:01:17 1016.800 1.5 83 -1.1         113.96
2010-May-17 08:01:17 1016.900 4.4 83 1.8         113.96
2010-May-17 09:01:13 1016.900 10.6 65 4.3         113.96
2010-May-17 10:01:12 1017.000 15.5 46 3.9         113.96
2010-May-17 11:01:16 1017.100 19.8 32 2.5         113.96
2010-May-17 12:01:16 1017.300 22.1 26 1.5         113.96
2010-May-17 13:01:14 1017.000 24.6 23 1.9         113.96
2010-May-17 14:01:13 1016.600 24.9 23 2.1         113.96
2010-May-17 15:01:10 1016.400 24.9 22 1.6         113.96
2010-May-17 16:01:11 1016.000 25.6 20 1.0         113.96
2010-May-17 17:01:12 1015.500 25.8 21 1.7         113.96
2010-May-17 18:01:13 1015.500 25.5 20 0.9         113.96
2010-May-17 19:01:11 1015.300 24.4 21 0.6         113.96
2010-May-17 20:01:13 1015.500 21.1 25 0.1         113.96
2010-May-17 21:01:17 1016.400 17.6 44 5.1         113.96
2010-May-17 22:01:10 1017.000 14.6 53 5.1         113.96
2010-May-17 23:01:16 1018.300 11.6 65 5.2         113.96

Temperatura Máxima:25°    Temperatura Mínima:
Presión Máxima:1018.300 Hpa    Presión Mínima:1015.300 Hpa


Volver